createdAt,value
2023-01-22T00:01:53.286Z,5.70
2023-01-22T00:04:38.919Z,5.70
2023-01-22T00:07:24.403Z,5.60
2023-01-22T00:10:11.398Z,5.60
2023-01-22T00:12:56.736Z,5.60
2023-01-22T00:15:42.258Z,5.50
2023-01-22T00:18:27.981Z,5.60
2023-01-22T00:21:13.819Z,5.60
2023-01-22T00:23:59.035Z,5.60
2023-01-22T00:26:45.223Z,5.60
2023-01-22T00:29:31.070Z,5.50
2023-01-22T00:32:16.593Z,5.40
2023-01-22T00:35:02.256Z,5.30
2023-01-22T00:37:48.344Z,5.40
2023-01-22T00:40:33.976Z,5.40
2023-01-22T00:43:19.597Z,5.40
2023-01-22T00:46:07.814Z,5.40
2023-01-22T00:48:54.362Z,5.40
2023-01-22T00:51:42.086Z,5.40
2023-01-22T00:54:28.140Z,5.40
2023-01-22T00:57:13.695Z,5.40
2023-01-22T01:00:00.926Z,5.30
2023-01-22T01:03:07.495Z,5.40
2023-01-22T01:05:53.825Z,5.40
2023-01-22T01:08:42.162Z,5.30
2023-01-22T01:11:29.738Z,5.20
2023-01-22T01:14:15.852Z,5.20
2023-01-22T01:17:01.816Z,5.20
2023-01-22T01:19:47.498Z,5.20
2023-01-22T01:22:33.095Z,5.20
2023-01-22T01:25:18.728Z,5.20
2023-01-22T01:28:05.330Z,5.10
2023-01-22T01:30:50.615Z,5.10
2023-01-22T01:33:36.196Z,5.10
2023-01-22T01:36:40.516Z,5.10
2023-01-22T01:39:28.911Z,5.10
2023-01-22T01:42:14.814Z,5.10
2023-01-22T01:45:30.113Z,5.10
2023-01-22T01:48:21.861Z,5.10
2023-01-22T01:51:15.670Z,5.10
2023-01-22T01:54:03.141Z,5.10
2023-01-22T01:56:50.917Z,5.00
2023-01-22T01:59:38.023Z,5.00
2023-01-22T02:02:24.784Z,5.00
2023-01-22T02:05:12.141Z,5.00
2023-01-22T02:07:57.805Z,5.00
2023-01-22T02:10:43.358Z,5.00
2023-01-22T02:13:30.264Z,5.00
2023-01-22T02:16:17.827Z,4.90
2023-01-22T02:19:04.226Z,5.00
2023-01-22T02:21:49.616Z,4.90
2023-01-22T02:24:34.858Z,4.90
2023-01-22T02:27:21.275Z,4.90
2023-01-22T02:30:08.891Z,4.90
2023-01-22T02:32:54.289Z,4.90
2023-01-22T02:35:39.947Z,4.90
2023-01-22T02:38:26.146Z,4.90
2023-01-22T02:41:12.833Z,4.90
2023-01-22T02:43:58.434Z,4.80
2023-01-22T02:46:44.773Z,4.90
2023-01-22T02:49:30.626Z,4.80
2023-01-22T02:52:16.318Z,4.80
2023-01-22T02:55:04.402Z,4.80
2023-01-22T02:57:50.097Z,4.90
2023-01-22T03:00:35.699Z,4.80
2023-01-22T03:03:21.378Z,4.90
2023-01-22T03:06:07.119Z,4.60
2023-01-22T03:08:57.639Z,4.90
2023-01-22T03:11:44.213Z,4.80
2023-01-22T03:14:52.525Z,4.80
2023-01-22T03:17:56.798Z,4.80
2023-01-22T03:21:00.824Z,4.80
2023-01-22T03:23:48.483Z,4.70
2023-01-22T03:26:36.113Z,4.70
2023-01-22T03:29:21.772Z,4.80
2023-01-22T03:32:07.875Z,4.70
2023-01-22T03:34:55.833Z,4.70
2023-01-22T03:37:43.635Z,4.70
2023-01-22T03:40:29.522Z,4.70
2023-01-22T03:43:15.357Z,4.60
2023-01-22T03:46:03.537Z,4.60
2023-01-22T03:48:52.213Z,4.60
2023-01-22T03:51:38.403Z,4.60
2023-01-22T03:54:23.728Z,4.60
2023-01-22T03:57:09.840Z,4.60
2023-01-22T04:00:02.118Z,4.60
2023-01-22T04:02:58.203Z,4.60
2023-01-22T04:05:49.471Z,4.60
2023-01-22T04:08:36.335Z,4.60
2023-01-22T04:11:22.982Z,4.50
2023-01-22T04:14:08.918Z,4.60
2023-01-22T04:16:57.911Z,4.50
2023-01-22T04:20:20.162Z,4.50
2023-01-22T04:23:25.304Z,4.50
2023-01-22T04:26:11.711Z,4.50
2023-01-22T04:28:57.191Z,4.40
2023-01-22T04:31:44.520Z,4.30
2023-01-22T04:35:04.089Z,4.30
2023-01-22T04:38:03.575Z,4.30
2023-01-22T04:40:49.619Z,4.30
2023-01-22T04:43:35.651Z,4.30
2023-01-22T04:46:22.127Z,4.30
2023-01-22T04:49:08.433Z,4.30
2023-01-22T04:51:56.515Z,4.40
2023-01-22T04:54:44.157Z,4.40
2023-01-22T04:57:30.307Z,4.40
2023-01-22T05:00:17.012Z,4.40
2023-01-22T05:03:04.030Z,4.40
2023-01-22T05:05:49.949Z,4.50
2023-01-22T05:08:37.376Z,4.50
2023-01-22T05:11:23.030Z,4.60
2023-01-22T05:14:14.004Z,4.70
2023-01-22T05:17:01.288Z,4.70
2023-01-22T05:19:47.336Z,4.80
2023-01-22T05:22:37.704Z,4.80
2023-01-22T05:25:24.342Z,4.90
2023-01-22T05:28:10.007Z,4.90
2023-01-22T05:31:27.743Z,4.80
2023-01-22T05:34:24.922Z,4.90
2023-01-22T05:37:10.546Z,4.90
2023-01-22T05:39:56.394Z,5.00
2023-01-22T05:42:43.006Z,5.00
2023-01-22T05:45:30.688Z,5.00
2023-01-22T05:48:36.483Z,5.00
2023-01-22T05:51:32.356Z,5.00
2023-01-22T05:54:18.284Z,5.00
2023-01-22T05:57:05.864Z,5.10
2023-01-22T05:59:51.433Z,5.10
2023-01-22T06:02:37.227Z,5.10
2023-01-22T06:05:23.331Z,5.10
2023-01-22T06:08:16.795Z,5.10
2023-01-22T06:11:14.650Z,5.20
2023-01-22T06:14:05.140Z,5.20
2023-01-22T06:16:52.515Z,5.20
2023-01-22T06:19:48.280Z,5.20
2023-01-22T06:22:36.412Z,5.20
2023-01-22T06:25:22.282Z,5.20
2023-01-22T06:28:29.068Z,5.20
2023-01-22T06:31:15.435Z,5.20
2023-01-22T06:34:01.024Z,5.20
2023-01-22T06:36:47.272Z,5.20
2023-01-22T06:39:33.398Z,5.20
2023-01-22T06:42:25.375Z,5.20
2023-01-22T06:45:11.317Z,5.20
2023-01-22T06:48:04.044Z,5.10
2023-01-22T06:50:49.537Z,5.10
2023-01-22T06:53:36.487Z,5.20
2023-01-22T06:56:21.982Z,5.20
2023-01-22T06:59:09.152Z,5.10
2023-01-22T07:01:54.680Z,5.10
2023-01-22T07:04:41.149Z,5.20
2023-01-22T07:07:26.738Z,5.20
2023-01-22T07:10:12.531Z,5.30
2023-01-22T07:12:59.888Z,5.30
2023-01-22T07:15:46.760Z,5.40
2023-01-22T07:18:32.256Z,5.40
2023-01-22T07:21:22.076Z,5.30
2023-01-22T07:24:09.869Z,5.30
2023-01-22T07:26:55.423Z,5.30
2023-01-22T07:29:41.307Z,5.40
2023-01-22T07:32:27.048Z,5.40
2023-01-22T07:35:12.589Z,5.40
2023-01-22T07:37:58.988Z,5.40
2023-01-22T07:40:46.513Z,5.30
2023-01-22T07:43:32.380Z,5.20
2023-01-22T07:46:18.212Z,5.30
2023-01-22T07:49:05.810Z,5.30
2023-01-22T07:51:51.311Z,5.30
2023-01-22T07:54:36.994Z,5.20
2023-01-22T07:57:22.739Z,5.20
2023-01-22T08:00:10.950Z,5.20
2023-01-22T08:02:59.511Z,5.30
2023-01-22T08:05:45.012Z,5.30
2023-01-22T08:08:30.650Z,5.40
2023-01-22T08:11:16.779Z,5.30
2023-01-22T08:14:01.940Z,5.30
2023-01-22T08:16:48.390Z,5.30
2023-01-22T08:19:34.512Z,5.30
2023-01-22T08:22:20.377Z,5.30
2023-01-22T08:25:05.943Z,5.40
2023-01-22T08:27:51.494Z,5.40
2023-01-22T08:30:45.391Z,5.40
2023-01-22T08:33:32.603Z,5.40
2023-01-22T08:36:18.332Z,5.50
2023-01-22T08:39:04.239Z,5.50
2023-01-22T08:41:49.428Z,5.50
2023-01-22T08:44:34.954Z,5.60
2023-01-22T08:47:20.544Z,5.70
2023-01-22T08:50:06.735Z,5.70
2023-01-22T08:52:53.527Z,5.70
2023-01-22T08:55:38.996Z,5.70
2023-01-22T08:58:27.758Z,5.80
2023-01-22T09:01:17.780Z,5.80
2023-01-22T09:04:05.492Z,5.80
2023-01-22T09:06:51.432Z,5.80
2023-01-22T09:09:38.437Z,5.90
2023-01-22T09:12:24.204Z,5.90
2023-01-22T09:15:10.626Z,5.80
2023-01-22T09:17:56.478Z,5.80
2023-01-22T09:20:41.849Z,5.90
2023-01-22T09:23:27.613Z,6.00
2023-01-22T09:26:13.760Z,6.10
2023-01-22T09:29:03.255Z,6.20
2023-01-22T09:31:50.997Z,6.20
2023-01-22T09:34:39.628Z,6.20
2023-01-22T09:37:25.472Z,6.30
2023-01-22T09:40:27.034Z,6.30
2023-01-22T09:43:28.049Z,6.30
2023-01-22T09:46:18.172Z,6.30
2023-01-22T09:49:08.711Z,6.30
2023-01-22T09:52:04.284Z,6.30
2023-01-22T09:54:50.550Z,6.40
2023-01-22T09:57:39.811Z,6.40
2023-01-22T10:00:45.631Z,6.40
2023-01-22T10:03:42.110Z,6.50
2023-01-22T10:06:29.968Z,6.50
2023-01-22T10:09:16.706Z,6.60
2023-01-22T10:12:08.559Z,6.60
2023-01-22T10:14:53.934Z,6.60
2023-01-22T10:17:40.020Z,6.70
2023-01-22T10:20:26.359Z,6.70
2023-01-22T10:23:19.208Z,6.80
2023-01-22T10:26:13.241Z,6.90
2023-01-22T10:29:04.163Z,6.90
2023-01-22T10:31:52.320Z,6.90
2023-01-22T10:34:37.783Z,6.90
2023-01-22T10:37:24.602Z,6.90
2023-01-22T10:40:38.963Z,6.90
2023-01-22T10:43:31.948Z,6.90
2023-01-22T10:46:20.758Z,6.90
2023-01-22T10:49:06.459Z,6.90
2023-01-22T10:51:53.901Z,6.90
2023-01-22T10:54:41.684Z,6.90
2023-01-22T10:57:29.104Z,7.70
2023-01-22T11:00:14.807Z,7.00
2023-01-22T11:03:00.146Z,7.00
2023-01-22T11:05:46.626Z,7.00
2023-01-22T11:08:48.633Z,7.00
2023-01-22T11:11:38.395Z,7.00
2023-01-22T11:14:27.582Z,6.90
2023-01-22T11:17:19.566Z,6.90
2023-01-22T11:20:11.562Z,6.70
2023-01-22T11:23:05.943Z,6.70
2023-01-22T11:26:16.981Z,6.60
2023-01-22T11:29:14.618Z,6.60
2023-01-22T11:32:12.178Z,6.60
2023-01-22T11:35:13.223Z,6.60
2023-01-22T11:38:10.864Z,6.60
2023-01-22T11:41:17.688Z,6.70
2023-01-22T11:44:15.233Z,6.60
2023-01-22T11:47:13.963Z,6.40
2023-01-22T11:49:59.902Z,6.30
2023-01-22T11:52:54.775Z,6.40
2023-01-22T11:55:52.100Z,6.40
2023-01-22T11:58:50.704Z,6.50
2023-01-22T12:01:42.218Z,6.40
2023-01-22T12:04:45.977Z,6.60
2023-01-22T12:07:37.722Z,6.70
2023-01-22T12:10:23.630Z,6.70
2023-01-22T12:13:28.315Z,6.70
2023-01-22T12:16:19.934Z,6.70
2023-01-22T12:19:20.046Z,6.70
2023-01-22T12:22:14.907Z,6.80
2023-01-22T12:25:04.756Z,6.70
2023-01-22T12:28:20.170Z,6.70
2023-01-22T12:31:24.121Z,6.70
2023-01-22T12:34:13.644Z,6.70
2023-01-22T12:37:01.868Z,6.70
2023-01-22T12:40:07.552Z,6.70
2023-01-22T12:43:00.671Z,6.80
2023-01-22T12:45:49.811Z,6.80
2023-01-22T12:48:54.801Z,6.80
2023-01-22T12:51:42.245Z,6.70
2023-01-22T12:54:28.249Z,6.70
2023-01-22T12:57:28.073Z,6.80
2023-01-22T13:00:31.143Z,6.80
2023-01-22T13:03:30.859Z,6.90
2023-01-22T13:06:19.001Z,6.90
2023-01-22T13:09:06.281Z,7.00
2023-01-22T13:11:51.982Z,7.00
2023-01-22T13:14:40.997Z,7.00
2023-01-22T13:17:30.492Z,7.10
2023-01-22T13:20:20.029Z,7.10
2023-01-22T13:23:06.928Z,7.10
2023-01-22T13:25:53.641Z,7.10
2023-01-22T13:28:42.276Z,7.20
2023-01-22T13:31:29.149Z,7.20
2023-01-22T13:34:15.370Z,7.20
2023-01-22T13:37:01.061Z,7.20
2023-01-22T13:39:49.651Z,7.20
2023-01-22T13:42:35.683Z,7.20
2023-01-22T13:45:33.197Z,7.20
2023-01-22T13:48:19.866Z,7.20
2023-01-22T13:51:06.642Z,7.10
2023-01-22T13:53:54.698Z,7.10
2023-01-22T13:56:40.464Z,7.00
2023-01-22T13:59:36.435Z,7.00
2023-01-22T14:02:22.497Z,6.90
2023-01-22T14:05:16.999Z,6.90
2023-01-22T14:08:06.071Z,6.90
2023-01-22T14:10:58.703Z,6.90
2023-01-22T14:13:45.164Z,6.90
2023-01-22T14:16:40.095Z,6.90
2023-01-22T14:19:26.022Z,6.90
2023-01-22T14:22:11.693Z,6.80
2023-01-22T14:24:59.604Z,6.80
2023-01-22T14:27:46.641Z,6.80
2023-01-22T14:30:32.339Z,6.80
2023-01-22T14:33:25.203Z,6.80
2023-01-22T14:36:10.790Z,6.70
2023-01-22T14:38:57.817Z,6.70
2023-01-22T14:41:43.535Z,6.70
2023-01-22T14:44:29.172Z,6.60
2023-01-22T14:47:14.782Z,6.60
2023-01-22T14:50:00.174Z,6.60
2023-01-22T14:52:46.006Z,6.60
2023-01-22T14:55:31.219Z,6.60
2023-01-22T14:58:16.653Z,6.50
2023-01-22T15:01:03.246Z,6.50
2023-01-22T15:03:48.908Z,6.50
2023-01-22T15:06:34.796Z,6.50
2023-01-22T15:09:20.152Z,6.40
2023-01-22T15:12:06.443Z,6.40
2023-01-22T15:14:51.805Z,6.30
2023-01-22T15:17:37.464Z,6.30
2023-01-22T15:20:23.347Z,6.30
2023-01-22T15:23:08.707Z,6.20
2023-01-22T15:26:01.194Z,6.20
2023-01-22T15:28:46.886Z,6.10
2023-01-22T15:31:32.483Z,6.10
2023-01-22T15:34:18.429Z,6.00
2023-01-22T15:37:05.024Z,6.00
2023-01-22T15:39:50.718Z,5.90
2023-01-22T15:42:36.441Z,5.90
2023-01-22T15:45:22.419Z,5.90
2023-01-22T15:48:08.098Z,5.80
2023-01-22T15:50:53.623Z,5.80
2023-01-22T15:53:39.350Z,5.70
2023-01-22T15:56:25.998Z,5.70
2023-01-22T15:59:12.033Z,5.70
2023-01-22T16:01:57.547Z,5.60
2023-01-22T16:04:42.933Z,5.60
2023-01-22T16:07:28.293Z,5.50
2023-01-22T16:10:13.812Z,5.50
2023-01-22T16:12:59.668Z,5.40
2023-01-22T16:15:47.167Z,5.40
2023-01-22T16:18:34.318Z,5.40
2023-01-22T16:21:20.293Z,5.40
2023-01-22T16:24:05.979Z,5.30
2023-01-22T16:26:51.843Z,5.30
2023-01-22T16:29:37.352Z,5.20
2023-01-22T16:32:23.009Z,5.20
2023-01-22T16:35:12.410Z,5.10
2023-01-22T16:37:57.925Z,5.10
2023-01-22T16:40:43.564Z,5.10
2023-01-22T16:43:29.584Z,5.10
2023-01-22T16:46:16.273Z,5.10
2023-01-22T16:49:21.893Z,5.20
2023-01-22T16:52:22.001Z,5.10
2023-01-22T16:55:08.676Z,5.00
2023-01-22T16:57:54.139Z,5.00
2023-01-22T17:00:40.000Z,5.00
2023-01-22T17:03:25.853Z,4.90
2023-01-22T17:06:20.525Z,5.00
2023-01-22T17:09:05.933Z,4.90
2023-01-22T17:11:52.504Z,4.90
2023-01-22T17:14:38.207Z,4.90
2023-01-22T17:17:23.999Z,4.90
2023-01-22T17:20:09.719Z,4.90
2023-01-22T17:22:55.365Z,4.90
2023-01-22T17:25:44.139Z,4.90
2023-01-22T17:28:29.929Z,4.80
2023-01-22T17:31:17.105Z,4.80
2023-01-22T17:34:04.090Z,4.70
2023-01-22T17:36:51.086Z,4.80
2023-01-22T17:39:37.320Z,4.80
2023-01-22T17:42:23.231Z,4.80
2023-01-22T17:45:09.040Z,4.80
2023-01-22T17:47:54.704Z,4.70
2023-01-22T17:50:40.550Z,4.80
2023-01-22T17:53:26.107Z,4.70
2023-01-22T17:56:13.497Z,4.70
2023-01-22T17:59:00.492Z,4.70
2023-01-22T18:01:46.358Z,4.70
2023-01-22T18:04:41.217Z,4.70
2023-01-22T18:07:26.473Z,4.60
2023-01-22T18:10:13.475Z,4.60
2023-01-22T18:12:58.871Z,4.40
2023-01-22T18:15:45.234Z,4.40
2023-01-22T18:18:30.827Z,4.40
2023-01-22T18:21:17.199Z,4.30
2023-01-22T18:24:03.931Z,4.30
2023-01-22T18:26:50.387Z,4.40
2023-01-22T18:29:36.000Z,4.50
2023-01-22T18:32:22.526Z,4.50
2023-01-22T18:35:08.285Z,4.60
2023-01-22T18:37:57.673Z,4.60
2023-01-22T18:40:43.421Z,4.60
2023-01-22T18:43:29.265Z,4.70
2023-01-22T18:46:14.836Z,4.70
2023-01-22T18:49:01.936Z,4.80
2023-01-22T18:51:47.640Z,4.70
2023-01-22T18:54:33.206Z,4.80
2023-01-22T18:57:18.924Z,4.80
2023-01-22T19:00:04.875Z,4.80
2023-01-22T19:02:55.158Z,4.80
2023-01-22T19:05:40.748Z,4.80
2023-01-22T19:08:26.428Z,4.80
2023-01-22T19:11:12.794Z,4.80
2023-01-22T19:13:59.603Z,4.80
2023-01-22T19:16:48.228Z,4.90
2023-01-22T19:19:33.872Z,4.80
2023-01-22T19:22:19.653Z,4.80
2023-01-22T19:25:06.844Z,4.80
2023-01-22T19:27:52.107Z,4.90
2023-01-22T19:30:38.141Z,4.80
2023-01-22T19:33:27.699Z,4.90
2023-01-22T19:36:13.589Z,4.90
2023-01-22T19:38:59.908Z,4.90
2023-01-22T19:41:46.035Z,4.90
2023-01-22T19:44:32.391Z,4.90
2023-01-22T19:47:19.111Z,4.90
2023-01-22T19:50:05.446Z,4.90
2023-01-22T19:52:51.145Z,4.90
2023-01-22T19:55:37.493Z,4.90
2023-01-22T19:58:22.815Z,4.90
2023-01-22T20:01:10.231Z,4.90
2023-01-22T20:03:56.480Z,4.80
2023-01-22T20:06:41.683Z,4.80
2023-01-22T20:09:27.691Z,4.70
2023-01-22T20:12:13.036Z,4.70
2023-01-22T20:14:58.932Z,4.70
2023-01-22T20:17:44.825Z,4.70
2023-01-22T20:20:30.969Z,4.70
2023-01-22T20:23:16.490Z,4.70
2023-01-22T20:26:05.523Z,4.70
2023-01-22T20:28:51.180Z,4.60
2023-01-22T20:31:37.171Z,4.60
2023-01-22T20:34:23.094Z,4.50
2023-01-22T20:37:08.999Z,4.60
2023-01-22T20:39:54.855Z,4.60
2023-01-22T20:42:40.515Z,4.60
2023-01-22T20:45:26.128Z,4.60
2023-01-22T20:48:12.930Z,4.60
2023-01-22T20:50:59.159Z,4.60
2023-01-22T20:53:45.815Z,4.60
2023-01-22T20:56:32.778Z,4.60
2023-01-22T20:59:19.454Z,4.60
2023-01-22T21:02:04.819Z,4.60
2023-01-22T21:04:51.638Z,4.60
2023-01-22T21:07:37.030Z,4.60
2023-01-22T21:10:23.033Z,4.60
2023-01-22T21:13:08.751Z,4.60
2023-01-22T21:15:54.363Z,4.60
2023-01-22T21:18:42.031Z,4.70
2023-01-22T21:21:28.122Z,4.60
2023-01-22T21:24:13.891Z,4.60
2023-01-22T21:26:59.465Z,4.60
2023-01-22T21:29:45.128Z,4.60
2023-01-22T21:32:31.061Z,4.70
2023-01-22T21:35:16.936Z,4.70
2023-01-22T21:38:02.581Z,4.60
2023-01-22T21:40:48.116Z,4.60
2023-01-22T21:43:52.661Z,4.70
2023-01-22T21:46:39.608Z,4.60
2023-01-22T21:49:25.415Z,4.70
2023-01-22T21:52:11.149Z,4.70
2023-01-22T21:54:56.941Z,4.70
2023-01-22T21:57:44.178Z,4.60
2023-01-22T22:00:29.979Z,4.70
2023-01-22T22:03:16.030Z,4.70
2023-01-22T22:06:02.335Z,4.70
2023-01-22T22:08:47.961Z,4.70
2023-01-22T22:11:34.327Z,4.70
2023-01-22T22:14:22.836Z,4.70
2023-01-22T22:17:08.502Z,4.60
2023-01-22T22:19:54.277Z,4.60
2023-01-22T22:22:40.404Z,4.60
2023-01-22T22:25:25.984Z,4.60
2023-01-22T22:28:11.380Z,4.60
2023-01-22T22:31:17.391Z,4.60
2023-01-22T22:34:03.400Z,4.60
2023-01-22T22:36:49.233Z,4.60
2023-01-22T22:39:34.854Z,4.60
2023-01-22T22:42:20.659Z,4.60
2023-01-22T22:45:06.674Z,4.60
2023-01-22T22:47:52.079Z,4.60
2023-01-22T22:50:40.239Z,4.50
2023-01-22T22:53:25.909Z,4.60
2023-01-22T22:56:12.016Z,4.60
2023-01-22T22:58:58.540Z,4.60
2023-01-22T23:01:43.943Z,4.60
2023-01-22T23:04:29.724Z,4.60
2023-01-22T23:07:15.520Z,4.60
2023-01-22T23:10:01.098Z,4.60
2023-01-22T23:12:46.971Z,4.60
2023-01-22T23:15:33.513Z,4.60
2023-01-22T23:18:20.233Z,4.60
2023-01-22T23:21:06.283Z,4.60
2023-01-22T23:23:52.459Z,4.70
2023-01-22T23:26:38.689Z,4.60
2023-01-22T23:29:24.878Z,4.60
2023-01-22T23:32:10.649Z,4.60
2023-01-22T23:34:56.479Z,4.60
2023-01-22T23:37:41.979Z,4.60
2023-01-22T23:40:27.773Z,4.70
2023-01-22T23:43:13.574Z,4.60
2023-01-22T23:45:59.372Z,4.60
2023-01-22T23:48:45.106Z,4.60
2023-01-22T23:51:31.059Z,4.60
2023-01-22T23:54:16.489Z,4.60
2023-01-22T23:57:02.345Z,4.60
2023-01-22T23:59:49.063Z,4.60
